Time;durP1;ratioP1;P1;durP2;ratioP2;P2;SDS_P1;SDS_P2;PMS_P1;PMS_P2;Temp;Humidity;BMP_temperature;BMP_pressure;BME280_temperature;BME280_humidity;BME280_pressure;Samples;Min_cycle;Max_cycle;Signal;HPM_P1;HPM_P2
2022/05/07 00:02:24;;;;;;;55.97;45.28;;;10.70;86.60;;;;;;5043760;28;20026;-44
2022/05/07 00:04:51;;;;;;;57.42;45.20;;;10.70;86.70;;;;;;5041775;28;20079;-43
2022/05/07 00:07:18;;;;;;;56.78;45.20;;;10.70;86.80;;;;;;5021989;28;20041;-43
2022/05/07 00:09:43;;;;;;;57.95;45.22;;;10.70;86.90;;;;;;5055983;28;20108;-44
2022/05/07 00:12:10;;;;;;;61.38;47.78;;;10.70;86.90;;;;;;5054378;28;20479;-43
2022/05/07 00:14:37;;;;;;;63.00;47.45;;;10.60;87.00;;;;;;5054462;28;20029;-43
2022/05/07 00:19:48;;;;;;;58.15;45.38;;;10.60;86.90;;;;;;5031519;28;20117;-43
2022/05/07 00:22:16;;;;;;;56.25;48.05;;;10.60;86.80;;;;;;5028625;28;20108;-44
2022/05/07 00:24:43;;;;;;;55.58;44.88;;;10.60;87.00;;;;;;5035950;28;20021;-44
2022/05/07 00:27:13;;;;;;;64.00;47.95;;;10.60;87.00;;;;;;5037603;28;20027;-44
2022/05/07 00:29:39;;;;;;;60.65;47.35;;;10.60;87.10;;;;;;5036677;28;20044;-45
2022/05/07 00:32:06;;;;;;;62.95;48.83;;;10.50;87.10;;;;;;5023131;28;20037;-43
2022/05/07 00:34:33;;;;;;;62.85;48.72;;;10.50;87.20;;;;;;5036288;28;20362;-43
2022/05/07 00:37:00;;;;;;;59.47;49.25;;;10.50;87.40;;;;;;5036381;28;20053;-43
2022/05/07 00:39:30;;;;;;;63.58;48.50;;;10.50;87.40;;;;;;5054695;28;20013;-45
2022/05/07 00:42:02;;;;;;;56.85;46.92;;;10.50;87.50;;;;;;5055316;28;20025;-43
2022/05/07 00:44:28;;;;;;;56.97;47.90;;;10.50;87.50;;;;;;5053431;28;20024;-43
2022/05/07 00:47:05;;;;;;;55.50;44.58;;;10.50;87.60;;;;;;5053594;28;20123;-44
2022/05/07 00:49:32;;;;;;;67.05;46.75;;;10.50;87.50;;;;;;5053818;28;20029;-42
2022/05/07 00:51:59;;;;;;;56.40;46.10;;;10.50;87.60;;;;;;5054704;28;20054;-44
2022/05/07 00:54:26;;;;;;;60.80;45.95;;;10.50;87.60;;;;;;5052958;28;20155;-45
2022/05/07 00:56:53;;;;;;;63.75;47.63;;;10.40;87.70;;;;;;5035715;28;20029;-45
2022/05/07 00:59:20;;;;;;;59.67;48.65;;;10.50;87.70;;;;;;5022656;28;20039;-43
2022/05/07 01:01:47;;;;;;;65.88;48.45;;;10.40;87.80;;;;;;5031612;28;20481;-45
2022/05/07 01:04:13;;;;;;;69.38;51.85;;;10.40;87.80;;;;;;5041418;28;20033;-43
2022/05/07 01:06:41;;;;;;;73.85;54.13;;;10.40;87.90;;;;;;5053435;28;20104;-45
2022/05/07 01:09:08;;;;;;;67.32;51.25;;;10.40;88.10;;;;;;5055458;28;20440;-43
2022/05/07 01:11:35;;;;;;;72.25;54.17;;;10.50;88.20;;;;;;5054003;28;20437;-42
2022/05/07 01:14:04;;;;;;;72.88;55.75;;;10.50;88.30;;;;;;5053494;28;20037;-44
2022/05/07 01:16:31;;;;;;;66.78;51.55;;;10.50;88.50;;;;;;5054207;28;20427;-43
2022/05/07 01:18:58;;;;;;;75.82;56.35;;;10.60;88.60;;;;;;5053029;28;20047;-43
2022/05/07 01:21:24;;;;;;;67.53;52.22;;;10.70;88.70;;;;;;5054265;28;20097;-45
2022/05/07 01:23:54;;;;;;;72.00;54.22;;;10.70;88.70;;;;;;5053477;28;20029;-42
2022/05/07 01:26:23;;;;;;;70.50;55.45;;;10.80;88.70;;;;;;5052070;28;20420;-43
2022/05/07 01:28:57;;;;;;;68.47;52.95;;;10.80;88.80;;;;;;5055033;28;20029;-43
2022/05/07 01:31:28;;;;;;;70.65;52.35;;;10.90;88.80;;;;;;5054287;28;20029;-43
2022/05/07 01:33:54;;;;;;;72.43;56.90;;;10.90;88.80;;;;;;5053248;28;20036;-43
2022/05/07 01:36:20;;;;;;;69.95;52.83;;;11.00;88.80;;;;;;5052851;28;20036;-43
2022/05/07 01:38:48;;;;;;;71.85;55.95;;;11.00;88.80;;;;;;5054960;28;20024;-43
2022/05/07 01:41:15;;;;;;;68.32;53.63;;;11.00;88.80;;;;;;5035589;28;20241;-44
2022/05/07 01:43:42;;;;;;;72.90;54.13;;;11.00;88.70;;;;;;5052264;28;20467;-43
2022/05/07 01:48:09;;;;;;;73.38;55.65;;;11.10;88.80;;;;;;5052631;28;20345;-43
2022/05/07 01:48:53;;;;;;;65.50;50.78;;;11.10;88.80;;;;;;5052502;28;20029;-42
2022/05/07 01:51:19;;;;;;;73.40;53.30;;;11.10;88.70;;;;;;5051604;28;20770;-43
2022/05/07 01:53:45;;;;;;;65.43;53.08;;;11.10;88.70;;;;;;5048641;28;20041;-42
2022/05/07 01:56:10;;;;;;;67.68;52.55;;;11.20;88.70;;;;;;5015561;28;20102;-43
2022/05/07 01:58:37;;;;;;;67.15;52.97;;;11.10;88.60;;;;;;5053599;28;20059;-47
2022/05/07 02:01:03;;;;;;;61.85;49.10;;;11.20;88.70;;;;;;5048634;28;20462;-42
2022/05/07 02:03:28;;;;;;;62.90;49.58;;;11.10;88.50;;;;;;5043193;28;20051;-42
2022/05/07 02:05:55;;;;;;;68.88;52.13;;;11.10;88.50;;;;;;5035801;28;20033;-42
2022/05/07 02:08:22;;;;;;;69.65;54.88;;;11.10;88.50;;;;;;5033629;28;20037;-43
2022/05/07 02:10:50;;;;;;;67.88;53.10;;;11.20;88.50;;;;;;5052166;28;20029;-42
2022/05/07 02:13:19;;;;;;;63.67;50.63;;;11.20;88.50;;;;;;5051377;28;20480;-43
2022/05/07 02:15:46;;;;;;;71.20;52.97;;;11.20;88.40;;;;;;5035798;28;20048;-43
2022/05/07 02:18:13;;;;;;;67.78;51.88;;;11.10;88.30;;;;;;5047504;28;20037;-43
2022/05/07 02:20:42;;;;;;;69.80;54.15;;;11.20;88.40;;;;;;5052306;28;20090;-43
2022/05/07 02:23:09;;;;;;;65.20;51.35;;;11.20;88.40;;;;;;5053596;28;20461;-43
2022/05/07 02:25:39;;;;;;;64.28;49.90;;;11.20;88.40;;;;;;5052027;28;20033;-42
2022/05/07 02:28:05;;;;;;;62.95;50.83;;;11.20;88.40;;;;;;5031723;28;20486;-44
2022/05/07 02:30:34;;;;;;;65.15;50.72;;;11.20;88.40;;;;;;5030878;28;20048;-43
2022/05/07 02:33:01;;;;;;;60.97;48.83;;;11.20;88.30;;;;;;5052454;28;20036;-43
2022/05/07 02:35:28;;;;;;;60.75;47.33;;;11.20;88.30;;;;;;5052251;28;20028;-43
2022/05/07 02:37:55;;;;;;;59.05;48.85;;;11.20;88.20;;;;;;5052148;28;20072;-44
2022/05/07 02:40:22;;;;;;;67.70;52.08;;;11.20;88.20;;;;;;5052870;28;20033;-42
2022/05/07 02:42:50;;;;;;;58.35;48.20;;;11.20;88.30;;;;;;5034837;28;20450;-46
2022/05/07 02:45:17;;;;;;;62.65;49.85;;;11.20;88.30;;;;;;5035206;28;20362;-45
2022/05/07 02:47:44;;;;;;;59.50;49.92;;;11.20;88.20;;;;;;5050387;28;20060;-43
2022/05/07 02:50:12;;;;;;;70.07;51.28;;;11.20;88.20;;;;;;5052075;28;20531;-44
2022/05/07 02:52:42;;;;;;;66.50;52.63;;;11.10;88.10;;;;;;5050046;28;20036;-42
2022/05/07 02:55:09;;;;;;;59.92;50.67;;;11.10;88.30;;;;;;5053087;28;20037;-44
2022/05/07 02:57:41;;;;;;;69.57;53.42;;;11.10;88.20;;;;;;5049927;28;20122;-41
2022/05/07 03:00:09;;;;;;;71.13;52.47;;;11.00;88.20;;;;;;5042379;28;20334;-42
2022/05/07 03:02:35;;;;;;;66.13;53.05;;;11.10;88.40;;;;;;5037074;28;20747;-43
2022/05/07 03:05:02;;;;;;;69.07;54.17;;;11.10;88.50;;;;;;5044258;28;20028;-42
2022/05/07 03:07:29;;;;;;;69.45;52.33;;;11.00;88.40;;;;;;5049957;28;20040;-45
2022/05/07 03:09:56;;;;;;;68.32;52.72;;;11.10;88.60;;;;;;5032781;28;20033;-44
2022/05/07 03:12:21;;;;;;;63.25;51.95;;;11.10;88.50;;;;;;5038821;28;20044;-47
2022/05/07 03:14:47;;;;;;;66.07;52.00;;;11.10;88.50;;;;;;5030602;28;20037;-43
2022/05/07 03:17:14;;;;;;;64.50;49.65;;;11.20;88.60;;;;;;5026967;28;20455;-42
2022/05/07 03:19:40;;;;;;;68.28;51.17;;;11.20;88.50;;;;;;5028655;28;20052;-44
2022/05/07 03:22:07;;;;;;;68.32;52.17;;;11.20;88.50;;;;;;5023537;28;20083;-43
2022/05/07 03:24:37;;;;;;;70.30;54.03;;;11.20;88.50;;;;;;5065822;28;20041;-45
2022/05/07 03:27:05;;;;;;;72.65;54.58;;;11.20;88.40;;;;;;5050954;28;20346;-42
2022/05/07 03:29:31;;;;;;;64.70;51.40;;;11.10;88.40;;;;;;5049421;28;20474;-44
2022/05/07 03:31:58;;;;;;;62.22;50.28;;;11.20;88.60;;;;;;5033229;28;20024;-43
2022/05/07 03:34:28;;;;;;;68.25;53.40;;;11.20;88.50;;;;;;5042635;28;20120;-43
2022/05/07 03:36:57;;;;;;;63.15;51.50;;;11.20;88.40;;;;;;5030015;28;20091;-43
2022/05/07 03:39:26;;;;;;;65.47;52.75;;;11.20;88.50;;;;;;5040261;28;20319;-43
2022/05/07 03:41:55;;;;;;;66.15;52.00;;;11.20;88.40;;;;;;5050247;28;20033;-43
2022/05/07 03:44:22;;;;;;;58.38;49.83;;;11.20;88.40;;;;;;5033826;28;20086;-42
2022/05/07 03:46:49;;;;;;;65.47;51.47;;;11.20;88.40;;;;;;5049580;28;20041;-43
2022/05/07 03:49:15;;;;;;;63.13;50.22;;;11.20;88.30;;;;;;5040050;28;20393;-45
2022/05/07 03:54:30;;;;;;;61.90;49.70;;;11.20;88.40;;;;;;5050721;28;20056;-44
2022/05/07 03:56:56;;;;;;;65.93;51.83;;;11.20;88.40;;;;;;5029357;28;20072;-48
2022/05/07 03:59:23;;;;;;;65.20;53.13;;;11.20;88.40;;;;;;5031444;28;20053;-42
2022/05/07 04:01:49;;;;;;;63.78;51.53;;;11.20;88.40;;;;;;5033347;28;20026;-42
2022/05/07 04:04:16;;;;;;;69.05;53.35;;;11.30;88.50;;;;;;5034112;28;20104;-41
2022/05/07 04:06:42;;;;;;;65.68;52.15;;;11.30;88.40;;;;;;5032760;28;20029;-42
2022/05/07 04:09:09;;;;;;;65.78;51.50;;;11.30;88.50;;;;;;5033526;28;20021;-42
2022/05/07 04:11:38;;;;;;;75.25;54.60;;;11.20;88.50;;;;;;5028224;28;20332;-42
2022/05/07 04:14:05;;;;;;;68.63;54.73;;;11.30;88.60;;;;;;5032799;28;20071;-42
2022/05/07 04:16:34;;;;;;;64.20;50.65;;;11.30;88.50;;;;;;5031527;28;20029;-41
2022/05/07 04:19:01;;;;;;;67.50;53.13;;;11.30;88.50;;;;;;5014780;28;20079;-41
2022/05/07 04:21:28;;;;;;;69.63;53.90;;;11.30;88.50;;;;;;5031109;28;20044;-43
2022/05/07 04:23:53;;;;;;;61.60;51.00;;;11.40;88.50;;;;;;5032201;28;20061;-43
2022/05/07 04:26:20;;;;;;;69.75;55.70;;;11.40;88.50;;;;;;5031311;28;20470;-43
2022/05/07 04:28:48;;;;;;;69.10;54.88;;;11.40;88.60;;;;;;5014519;28;20032;-42
2022/05/07 04:31:18;;;;;;;72.68;55.05;;;11.40;88.50;;;;;;5029324;28;20021;-41
2022/05/07 04:33:48;;;;;;;73.95;56.55;;;11.40;88.60;;;;;;5031752;28;20041;-42
2022/05/07 04:36:15;;;;;;;73.82;59.70;;;11.40;88.60;;;;;;5042493;28;20471;-42
2022/05/07 04:38:43;;;;;;;65.78;52.30;;;11.40;88.60;;;;;;5031469;28;20033;-44
2022/05/07 04:41:09;;;;;;;75.97;59.35;;;11.50;88.60;;;;;;5035336;28;20021;-42
2022/05/07 04:43:36;;;;;;;74.47;59.80;;;11.50;88.50;;;;;;5036535;28;20168;-42
2022/05/07 04:46:03;;;;;;;77.45;59.60;;;11.50;88.60;;;;;;5051114;28;20025;-41
2022/05/07 04:48:30;;;;;;;76.00;57.50;;;11.60;88.70;;;;;;5036796;28;20041;-41
2022/05/07 04:51:01;;;;;;;70.85;57.75;;;11.60;88.70;;;;;;5036623;28;20025;-42
2022/05/07 04:53:28;;;;;;;82.40;65.03;;;11.70;88.60;;;;;;5036565;28;20079;-42
2022/05/07 04:55:54;;;;;;;78.80;62.80;;;11.70;88.60;;;;;;5017833;28;20029;-42
2022/05/07 04:58:22;;;;;;;74.82;60.47;;;11.70;88.60;;;;;;5038621;28;20045;-43
2022/05/07 05:00:49;;;;;;;73.70;58.47;;;11.70;88.70;;;;;;5019397;28;20053;-42
2022/05/07 05:03:16;;;;;;;75.38;62.25;;;11.80;88.60;;;;;;5038541;28;20443;-42
2022/05/07 05:05:46;;;;;;;68.95;55.97;;;11.80;88.60;;;;;;5045216;28;20040;-45
2022/05/07 05:08:13;;;;;;;73.43;57.47;;;11.90;88.70;;;;;;5045412;28;20064;-44
2022/05/07 05:10:40;;;;;;;64.55;54.30;;;12.00;88.60;;;;;;5035877;28;20028;-42
2022/05/07 05:13:09;;;;;;;75.72;58.67;;;12.00;88.40;;;;;;5035951;28;20026;-44
2022/05/07 05:15:36;;;;;;;63.33;54.72;;;12.00;88.20;;;;;;5034974;28;20473;-42
2022/05/07 05:18:07;;;;;;;68.95;54.38;;;12.20;88.30;;;;;;5029822;28;20051;-42
2022/05/07 05:20:34;;;;;;;66.18;55.05;;;12.20;88.10;;;;;;5050992;28;20119;-42
2022/05/07 05:23:01;;;;;;;62.35;50.85;;;12.30;88.00;;;;;;5035840;28;20040;-43
2022/05/07 05:25:28;;;;;;;64.38;51.53;;;12.40;88.10;;;;;;5018198;28;20021;-41
2022/05/07 05:27:55;;;;;;;69.82;56.60;;;12.50;88.00;;;;;;5034001;28;20021;-45
2022/05/07 05:30:21;;;;;;;74.35;59.63;;;12.40;87.50;;;;;;5029374;28;20057;-44
2022/05/07 05:32:48;;;;;;;70.95;57.47;;;12.40;87.60;;;;;;5053445;28;20514;-42
2022/05/07 05:35:14;;;;;;;76.50;60.00;;;12.50;87.70;;;;;;5038953;28;20076;-45
2022/05/07 05:37:43;;;;;;;72.30;55.70;;;12.50;87.60;;;;;;5023143;28;20472;-44
2022/05/07 05:40:13;;;;;;;67.95;56.08;;;12.50;87.80;;;;;;5045231;28;20022;-42
2022/05/07 05:42:43;;;;;;;67.68;56.00;;;12.60;87.90;;;;;;5005896;28;20092;-43
2022/05/07 05:45:10;;;;;;;76.15;62.17;;;12.70;87.70;;;;;;5004072;28;20033;-44
2022/05/07 05:47:37;;;;;;;75.30;57.25;;;12.70;87.50;;;;;;5031620;28;20120;-44
2022/05/07 05:50:04;;;;;;;74.30;59.17;;;12.60;87.80;;;;;;5029592;28;20091;-42
2022/05/07 05:52:32;;;;;;;80.57;59.33;;;12.70;88.00;;;;;;5033179;28;20145;-43
2022/05/07 05:54:58;;;;;;;74.45;59.10;;;12.80;87.90;;;;;;5010626;28;20099;-45
2022/05/07 05:57:24;;;;;;;69.55;55.42;;;12.90;88.00;;;;;;5023507;28;20139;-45
2022/05/07 05:59:51;;;;;;;72.45;58.10;;;13.10;88.20;;;;;;5039951;28;20108;-46
2022/05/07 06:02:18;;;;;;;72.55;58.47;;;13.30;88.00;;;;;;5049234;28;20040;-43
2022/05/07 06:04:45;;;;;;;69.40;56.10;;;13.40;87.70;;;;;;5035142;28;20445;-46
2022/05/07 06:07:12;;;;;;;71.28;56.17;;;13.50;87.60;;;;;;5052465;28;20040;-43
2022/05/07 06:09:39;;;;;;;62.85;53.50;;;13.60;87.30;;;;;;5047190;28;20029;-44
2022/05/07 06:12:05;;;;;;;65.60;57.50;;;13.70;87.40;;;;;;5032433;28;20475;-46
2022/05/07 06:14:32;;;;;;;63.47;52.20;;;13.80;87.10;;;;;;5018370;28;20033;-47
2022/05/07 06:16:59;;;;;;;62.97;51.85;;;13.90;87.00;;;;;;5041089;28;20033;-43
2022/05/07 06:19:30;;;;;;;59.95;50.80;;;14.00;86.80;;;;;;5025605;28;20048;-47
2022/05/07 06:21:57;;;;;;;60.92;52.88;;;14.00;86.50;;;;;;5037719;28;20036;-46
2022/05/07 06:27:31;;;;;;;56.15;49.33;;;14.30;86.20;;;;;;5043004;28;20055;-44
2022/05/07 06:30:04;;;;;;;61.90;49.47;;;14.30;85.60;;;;;;5035091;28;20052;-46
2022/05/07 06:32:36;;;;;;;54.35;48.53;;;14.40;85.40;;;;;;5046390;28;20021;-47
2022/05/07 06:35:06;;;;;;;53.30;46.97;;;14.50;85.30;;;;;;5045562;28;20058;-44
2022/05/07 06:37:35;;;;;;;51.35;43.85;;;14.60;85.30;;;;;;5030932;28;20048;-44
2022/05/07 06:40:06;;;;;;;53.88;44.85;;;14.60;85.00;;;;;;5038992;28;20036;-45
2022/05/07 06:42:36;;;;;;;52.70;45.70;;;14.60;84.20;;;;;;5038329;28;20025;-44
2022/05/07 06:45:03;;;;;;;52.58;42.53;;;14.50;83.90;;;;;;5037452;28;20044;-45
2022/05/07 06:47:31;;;;;;;48.83;41.42;;;14.40;83.70;;;;;;5039797;28;20459;-45
2022/05/07 06:49:57;;;;;;;48.30;43.10;;;14.40;83.80;;;;;;5025444;28;20167;-46
2022/05/07 06:52:27;;;;;;;45.60;38.08;;;14.50;83.50;;;;;;5043445;28;20033;-46
2022/05/07 06:54:54;;;;;;;51.35;42.90;;;14.40;83.20;;;;;;5041932;28;20450;-46
2022/05/07 06:57:24;;;;;;;52.20;45.42;;;14.40;82.90;;;;;;5025151;28;20037;-46
2022/05/07 06:59:50;;;;;;;48.38;41.08;;;14.30;83.40;;;;;;5037164;28;20033;-46
2022/05/07 07:02:17;;;;;;;54.10;43.60;;;14.20;83.80;;;;;;5039989;28;20017;-45
2022/05/07 07:04:44;;;;;;;63.42;47.08;;;14.10;84.30;;;;;;5048144;28;20032;-45
2022/05/07 07:07:11;;;;;;;55.75;48.00;;;14.10;84.60;;;;;;5032656;28;20117;-46
2022/05/07 07:09:38;;;;;;;50.63;42.05;;;14.30;84.70;;;;;;5026003;28;20039;-45
2022/05/07 07:12:06;;;;;;;54.13;44.45;;;14.40;84.70;;;;;;5051688;28;20029;-45
2022/05/07 07:14:33;;;;;;;48.00;40.15;;;14.50;84.10;;;;;;5050830;28;20112;-46
2022/05/07 07:17:00;;;;;;;55.75;44.35;;;14.60;83.70;;;;;;5049018;28;20450;-46
2022/05/07 07:19:27;;;;;;;52.90;44.17;;;14.70;83.60;;;;;;5033601;28;20040;-46
2022/05/07 07:21:54;;;;;;;54.55;45.28;;;14.70;83.40;;;;;;5050361;28;20096;-44
2022/05/07 07:24:23;;;;;;;48.28;43.13;;;14.60;83.30;;;;;;5039004;28;20056;-47
2022/05/07 07:26:50;;;;;;;44.20;39.43;;;14.40;82.70;;;;;;5052487;28;20104;-47
2022/05/07 07:29:19;;;;;;;51.88;42.13;;;14.40;83.20;;;;;;5052177;28;20033;-44
2022/05/07 07:31:48;;;;;;;51.67;44.25;;;14.50;83.20;;;;;;5035318;28;20491;-48
2022/05/07 07:34:15;;;;;;;52.88;44.53;;;14.40;83.60;;;;;;5035488;28;20041;-46
2022/05/07 07:36:44;;;;;;;53.70;44.65;;;14.40;83.60;;;;;;5032657;28;20052;-46
2022/05/07 07:39:11;;;;;;;52.05;46.40;;;14.40;83.70;;;;;;5039231;28;20017;-44
2022/05/07 07:41:38;;;;;;;54.70;44.88;;;14.40;84.00;;;;;;5046425;28;20024;-45
2022/05/07 07:44:06;;;;;;;60.83;50.80;;;14.50;84.20;;;;;;5043557;28;20040;-51
2022/05/07 07:49:20;;;;;;;57.38;47.38;;;14.50;84.00;;;;;;5032832;28;20386;-44
2022/05/07 07:51:50;;;;;;;56.58;46.85;;;14.60;84.20;;;;;;5034416;28;20430;-45
2022/05/07 07:54:17;;;;;;;54.45;46.28;;;14.60;83.90;;;;;;5051526;28;20033;-47
2022/05/07 07:56:46;;;;;;;56.38;46.53;;;14.60;83.80;;;;;;5048182;28;20711;-45
2022/05/07 07:59:13;;;;;;;46.08;40.45;;;14.80;83.90;;;;;;5015726;28;20048;-48
2022/05/07 08:01:40;;;;;;;51.08;41.55;;;14.80;82.90;;;;;;5052163;28;20033;-45
2022/05/07 08:04:07;;;;;;;42.92;38.00;;;14.80;81.60;;;;;;5032516;28;20026;-46
2022/05/07 08:06:34;;;;;;;44.33;37.63;;;14.90;81.80;;;;;;5052493;28;20124;-46
2022/05/07 08:11:47;;;;;;;41.28;32.33;;;14.90;79.30;;;;;;5050615;28;20040;-44
2022/05/07 08:14:16;;;;;;;32.17;27.77;;;15.00;78.60;;;;;;5052114;28;20468;-45
2022/05/07 08:16:44;;;;;;;30.55;26.23;;;15.00;77.90;;;;;;5053902;28;20060;-45
2022/05/07 08:19:12;;;;;;;24.42;21.85;;;15.00;77.50;;;;;;5049961;28;20033;-44
2022/05/07 08:21:39;;;;;;;26.98;20.42;;;14.90;76.70;;;;;;5052692;28;20017;-45
2022/05/07 08:24:06;;;;;;;24.75;22.15;;;14.90;77.00;;;;;;5036859;28;20548;-45
2022/05/07 08:26:33;;;;;;;21.52;17.55;;;14.90;76.60;;;;;;5022039;28;20029;-45
2022/05/07 08:28:59;;;;;;;25.20;22.52;;;14.90;77.70;;;;;;5055262;28;20098;-45
2022/05/07 08:31:26;;;;;;;26.65;23.48;;;14.90;78.10;;;;;;5054193;28;20529;-47
2022/05/07 08:33:54;;;;;;;22.45;19.25;;;14.90;78.30;;;;;;5031653;28;20065;-47
2022/05/07 08:36:21;;;;;;;26.05;21.33;;;15.00;78.60;;;;;;5044316;28;20083;-45
2022/05/07 08:38:48;;;;;;;21.73;17.50;;;15.10;79.00;;;;;;5046709;28;20029;-44
2022/05/07 08:41:18;;;;;;;21.40;18.70;;;15.10;79.70;;;;;;5022748;28;20729;-45
2022/05/07 08:43:45;;;;;;;;;;;15.20;79.20;;;;;;5051504;28;20801;-46
2022/05/07 08:46:29;;;;;;;25.75;19.42;;;15.20;79.30;;;;;;5036268;28;19924;-44
2022/05/07 08:48:56;;;;;;;22.75;18.17;;;15.10;78.30;;;;;;5033805;28;20527;-45
2022/05/07 08:51:24;;;;;;;24.98;20.88;;;14.90;78.90;;;;;;5037456;28;20104;-45
2022/05/07 08:53:53;;;;;;;20.05;17.95;;;14.90;79.30;;;;;;5020898;28;20053;-45
2022/05/07 08:56:21;;;;;;;20.50;17.03;;;14.90;79.80;;;;;;5034671;28;20044;-47
2022/05/07 08:58:49;;;;;;;20.70;17.70;;;14.90;79.80;;;;;;5038043;28;20399;-45
2022/05/07 09:01:17;;;;;;;22.17;18.75;;;14.90;79.20;;;;;;5033333;28;20457;-45
2022/05/07 09:03:49;;;;;;;22.90;20.10;;;15.10;79.60;;;;;;5038065;28;20040;-45
2022/05/07 09:06:16;;;;;;;34.25;28.05;;;15.00;78.70;;;;;;5034859;28;20796;-45
2022/05/07 09:08:43;;;;;;;40.75;33.45;;;15.00;79.40;;;;;;5033388;28;21071;-46
2022/05/07 09:11:14;;;;;;;23.58;19.40;;;14.90;79.10;;;;;;5034013;28;20390;-44
2022/05/07 09:13:41;;;;;;;17.30;14.40;;;14.90;79.50;;;;;;5024595;28;20344;-45
2022/05/07 09:16:08;;;;;;;16.38;12.82;;;14.70;77.80;;;;;;5028047;28;20431;-45
2022/05/07 09:18:36;;;;;;;18.13;13.50;;;14.60;78.40;;;;;;5034000;28;20025;-46
2022/05/07 09:21:24;;;;;;;20.60;17.10;;;14.50;78.30;;;;;;5034636;28;20053;-45
2022/05/07 09:24:03;;;;;;;28.35;25.27;;;14.50;78.90;;;;;;5031148;28;20071;-45
2022/05/07 09:26:39;;;;;;;23.75;20.13;;;14.60;79.30;;;;;;5031243;28;20033;-45
2022/05/07 09:29:10;;;;;;;38.83;31.10;;;14.60;79.10;;;;;;5034388;28;20033;-45
2022/05/07 09:31:41;;;;;;;50.03;44.63;;;14.40;79.70;;;;;;5034356;28;20025;-47
2022/05/07 09:36:59;;;;;;;31.85;25.98;;;14.50;80.90;;;;;;5033958;28;20044;-46
2022/05/07 09:39:33;;;;;;;29.67;26.48;;;14.50;80.60;;;;;;5034245;28;20048;-45
2022/05/07 09:42:01;;;;;;;31.52;27.52;;;14.50;80.30;;;;;;5049106;28;20029;-44
2022/05/07 09:44:28;;;;;;;41.53;34.13;;;14.60;80.60;;;;;;5032181;28;20087;-45
2022/05/07 09:46:56;;;;;;;28.42;24.25;;;14.60;80.50;;;;;;5033325;28;20017;-45
2022/05/07 09:49:25;;;;;;;30.33;23.55;;;14.50;81.50;;;;;;5033681;28;20030;-50
2022/05/07 09:51:54;;;;;;;30.88;27.10;;;14.40;82.50;;;;;;5033680;28;20033;-59
2022/05/07 10:00:02;;;;;;;35.47;27.10;;;14.20;84.50;;;;;;5032822;28;20040;-52
2022/05/07 10:02:46;;;;;;;29.00;23.90;;;14.20;84.60;;;;;;5034065;28;20122;-52
2022/05/07 10:05:44;;;;;;;25.10;22.30;;;14.30;85.10;;;;;;5048204;28;20407;-48
2022/05/07 10:08:57;;;;;;;28.17;23.73;;;14.40;85.20;;;;;;5027332;28;20489;-47
2022/05/07 10:11:25;;;;;;;31.52;24.48;;;14.40;85.40;;;;;;5023877;28;20081;-50
2022/05/07 10:13:56;;;;;;;31.33;25.15;;;14.40;85.50;;;;;;5047635;28;20030;-47
2022/05/07 10:16:23;;;;;;;35.47;26.58;;;14.40;85.50;;;;;;5033993;28;20041;-46
2022/05/07 10:18:49;;;;;;;31.70;27.98;;;14.30;85.10;;;;;;5031702;28;20021;-45
2022/05/07 10:21:18;;;;;;;31.17;26.00;;;14.30;85.90;;;;;;5032784;28;20021;-45
2022/05/07 10:23:57;;;;;;;33.20;27.98;;;14.30;86.10;;;;;;5018466;28;20083;-45
2022/05/07 10:26:44;;;;;;;36.33;28.10;;;14.20;85.90;;;;;;5031442;28;20092;-45
2022/05/07 10:29:40;;;;;;;29.58;25.90;;;14.20;85.90;;;;;;5023549;28;20044;-48
2022/05/07 10:32:07;;;;;;;29.25;24.13;;;14.00;86.10;;;;;;5018588;28;20083;-44
2022/05/07 10:34:33;;;;;;;28.13;22.77;;;13.90;86.10;;;;;;5030138;28;20362;-45
2022/05/07 10:37:07;;;;;;;30.67;24.88;;;13.80;85.70;;;;;;5040180;28;20017;-45
2022/05/07 10:39:36;;;;;;;31.33;24.67;;;13.50;86.30;;;;;;5037702;28;20040;-45
2022/05/07 10:42:19;;;;;;;30.88;25.52;;;13.50;86.90;;;;;;5040043;28;20033;-43
2022/05/07 10:44:46;;;;;;;30.15;23.95;;;13.50;87.10;;;;;;5046832;28;20036;-45
2022/05/07 10:47:15;;;;;;;31.88;23.38;;;13.40;87.30;;;;;;5048358;28;20544;-44
2022/05/07 10:50:10;;;;;;;28.83;21.13;;;13.40;87.30;;;;;;5033007;28;20032;-44
2022/05/07 10:52:37;;;;;;;30.40;22.88;;;13.40;87.40;;;;;;5032519;28;20045;-45
2022/05/07 10:55:10;;;;;;;26.58;20.42;;;13.40;87.30;;;;;;5013200;28;20041;-44
2022/05/07 10:57:41;;;;;;;33.35;23.70;;;13.40;87.50;;;;;;5013595;28;20029;-46
2022/05/07 11:00:13;;;;;;;36.10;26.88;;;13.40;87.60;;;;;;5013442;28;20068;-46
2022/05/07 11:02:40;;;;;;;29.83;24.75;;;13.30;87.50;;;;;;5016891;28;20109;-46
2022/05/07 11:05:07;;;;;;;31.10;25.98;;;13.30;87.90;;;;;;5012519;28;20093;-47
2022/05/07 11:07:37;;;;;;;34.25;28.23;;;13.20;88.00;;;;;;5012375;28;20018;-50
2022/05/07 11:10:04;;;;;;;33.88;26.05;;;13.40;88.20;;;;;;5009983;28;20029;-46
2022/05/07 11:12:31;;;;;;;32.30;25.33;;;13.40;88.20;;;;;;5019604;28;20522;-47
2022/05/07 11:14:58;;;;;;;32.58;25.40;;;13.50;88.10;;;;;;5014374;28;20041;-47
2022/05/07 11:17:36;;;;;;;31.08;22.85;;;13.50;87.90;;;;;;5007364;28;20025;-47
2022/05/07 11:20:06;;;;;;;31.83;24.17;;;13.50;87.70;;;;;;5005508;28;20080;-45
2022/05/07 11:22:33;;;;;;;32.65;25.83;;;13.50;87.80;;;;;;5006095;28;20108;-46
2022/05/07 11:25:01;;;;;;;29.50;24.17;;;13.60;87.80;;;;;;5012868;28;20041;-44
2022/05/07 11:27:36;;;;;;;27.50;22.77;;;13.70;87.70;;;;;;5007424;28;20399;-44
2022/05/07 11:30:04;;;;;;;32.42;25.73;;;13.80;87.70;;;;;;5004971;28;20329;-46
2022/05/07 11:32:41;;;;;;;30.77;24.75;;;13.70;87.20;;;;;;5004788;28;20030;-46
2022/05/07 11:35:09;;;;;;;30.35;22.42;;;13.70;87.10;;;;;;5007017;28;20463;-43
2022/05/07 11:37:45;;;;;;;29.88;24.45;;;13.90;87.20;;;;;;5007366;28;20034;-44
2022/05/07 11:40:14;;;;;;;31.58;23.27;;;13.80;86.70;;;;;;5005192;28;20034;-43
2022/05/07 11:45:47;;;;;;;33.28;22.40;;;13.70;87.00;;;;;;5006400;28;20041;-43
2022/05/07 11:48:31;;;;;;;28.85;21.55;;;13.70;87.30;;;;;;5006304;28;20037;-44
2022/05/07 11:51:01;;;;;;;27.35;20.40;;;13.60;86.90;;;;;;5014003;28;20034;-43
2022/05/07 11:53:31;;;;;;;30.85;22.35;;;13.60;86.60;;;;;;5006488;28;20526;-43
2022/05/07 11:56:15;;;;;;;30.08;22.13;;;13.60;86.80;;;;;;5015087;28;20633;-43
2022/05/07 11:58:49;;;;;;;31.05;23.05;;;13.70;86.60;;;;;;5014587;28;20026;-45
2022/05/07 12:01:23;;;;;;;27.58;20.33;;;13.60;86.50;;;;;;5016950;28;20040;-42
2022/05/07 12:03:51;;;;;;;30.85;22.80;;;13.40;86.20;;;;;;5015691;28;20061;-41
2022/05/07 12:06:32;;;;;;;32.67;23.27;;;13.40;86.60;;;;;;5015795;28;20100;-43
2022/05/07 12:09:15;;;;;;;31.60;23.33;;;13.40;87.10;;;;;;5016454;28;20049;-44
2022/05/07 12:11:44;;;;;;;32.92;22.90;;;13.40;87.00;;;;;;5008929;28;20054;-42
2022/05/07 12:14:12;;;;;;;26.45;21.20;;;13.60;87.30;;;;;;4996757;28;20432;-45
2022/05/07 12:19:42;;;;;;;22.38;17.73;;;13.90;86.40;;;;;;5016182;28;20041;-44
2022/05/07 12:30:26;;;;;;;12.15;9.65;;;14.20;84.40;;;;;;5016413;28;20068;-43
2022/05/07 12:32:55;;;;;;;15.52;12.23;;;14.20;84.50;;;;;;5016029;28;20053;-43
2022/05/07 12:35:22;;;;;;;16.27;13.93;;;14.40;84.70;;;;;;5029502;28;20386;-44
2022/05/07 12:37:49;;;;;;;20.40;16.10;;;14.70;85.00;;;;;;5029393;28;20341;-43
2022/05/07 12:40:18;;;;;;;22.00;16.35;;;14.70;83.80;;;;;;5015301;28;20054;-44
2022/05/07 12:42:46;;;;;;;20.90;17.05;;;14.70;84.00;;;;;;5015725;28;20077;-43
2022/05/07 12:45:13;;;;;;;21.65;17.35;;;14.70;83.20;;;;;;5015470;28;20049;-47
2022/05/07 12:47:39;;;;;;;20.83;15.88;;;14.80;84.10;;;;;;5015750;28;20025;-44
2022/05/07 12:50:09;;;;;;;20.05;15.20;;;15.00;83.90;;;;;;5015071;28;20125;-45
2022/05/07 12:52:36;;;;;;;15.60;12.35;;;15.20;83.40;;;;;;5030406;28;20450;-44
2022/05/07 12:55:03;;;;;;;16.77;12.75;;;15.20;82.60;;;;;;5027239;28;20056;-46
2022/05/07 12:57:31;;;;;;;17.17;11.77;;;15.20;82.80;;;;;;5014137;28;20029;-46
2022/05/07 12:59:58;;;;;;;7.78;5.63;;;15.20;82.70;;;;;;5004636;28;20030;-44
2022/05/07 13:02:23;;;;;;;14.95;12.30;;;14.90;82.10;;;;;;5040261;28;20029;-47
2022/05/07 13:04:50;;;;;;;15.15;13.65;;;14.50;82.70;;;;;;5016067;28;20105;-45
2022/05/07 13:07:17;;;;;;;14.45;12.57;;;14.00;83.60;;;;;;5000761;28;20095;-44
2022/05/07 13:09:43;;;;;;;18.48;13.20;;;13.70;84.00;;;;;;5014778;28;20045;-46
2022/05/07 13:12:13;;;;;;;16.23;13.85;;;13.40;85.00;;;;;;5014821;28;20042;-44
2022/05/07 13:14:40;;;;;;;18.38;13.48;;;13.20;85.50;;;;;;5030734;28;20439;-45